Vernicos Master — SVA2352 — position and weather

sailwx.info

Track history (hours):
 
Tides and Currents Weather Stations Pressure Air Temp Water Temp Dewpoint Dewpoint Depression Visibility Wind Speed Wind Dir Waves Ship Positions

Vernicos Master

Last reported at 2017-Nov-10 15:00 UTC. Time now 2017-Nov-20 07:47 UTC.
Position N 37°38' E 024°04'.
Warning: this ship's position is 9 days out of date.

Length 28 m; draft 3.8 m.

Type: Tug. MMSI: 240917000.

Date/timePositionNaut miles runAvg speedWind from/ knotsBaromVisibWave heightAir tempDewpointWater temp
2017-Nov-10 15:00N 37°38' E 024°04'14 9.6
2017-Nov-10 13:29N 37°43' E 023°48'510.2
2017-Nov-10 13:00N 37°47' E 023°43'510.1
2017-Nov-10 12:30N 37°51' E 023°40'5 9.7
2017-Nov-10 12:00N 37°56' E 023°37'0 1.0
2017-Nov-10 11:30N 37°56' E 023°37'0 0.0
2017-Nov-10 11:00N 37°56' E 023°37'0 0.0
2017-Nov-10 10:30N 37°56' E 023°37'0 0.0
2017-Nov-10 10:00N 37°56' E 023°37'0 0.0
2017-Nov-10 09:30N 37°56' E 023°37'0 0.0
2017-Nov-10 09:00N 37°56' E 023°37'0 0.0
2017-Nov-10 08:30N 37°56' E 023°37'0 0.0
2017-Nov-10 08:00N 37°56' E 023°37'1 1.7
2017-Nov-10 07:30N 37°56' E 023°38'0 0.3
2017-Nov-10 07:01N 37°57' E 023°38'2 4.9
2017-Nov-10 06:30N 37°57' E 023°35'1 1.7
2017-Nov-10 06:00N 37°57' E 023°36'0 0.0
2017-Nov-10 05:30N 37°57' E 023°36'0 0.0
2017-Nov-10 05:00N 37°57' E 023°36'0 0.0
2017-Nov-10 04:30N 37°57' E 023°36'0 0.0
2017-Nov-10 04:00N 37°57' E 023°36'0 0.0
2017-Nov-10 03:30N 37°57' E 023°36'0 0.0
2017-Nov-10 03:00N 37°57' E 023°36'0 0.0
2017-Nov-10 02:30N 37°57' E 023°36'0 0.0
2017-Nov-10 02:00N 37°57' E 023°36'0 0.0
2017-Nov-10 01:30N 37°57' E 023°36'0 0.0
2017-Nov-10 01:00N 37°57' E 023°36'0 0.0
2017-Nov-10 00:30N 37°57' E 023°36'0 0.0
2017-Nov-10 00:00N 37°57' E 023°36'0 0.0
2017-Nov-09 23:30N 37°57' E 023°36'0 0.0
2017-Nov-09 23:00N 37°57' E 023°36'0 0.0
2017-Nov-09 22:30N 37°57' E 023°36'0 0.0
2017-Nov-09 22:00N 37°57' E 023°36'0 0.0
2017-Nov-09 21:30N 37°57' E 023°36'0 0.0
2017-Nov-09 21:00N 37°57' E 023°36'0 0.0
2017-Nov-09 20:30N 37°57' E 023°36'0 0.0
2017-Nov-09 20:00N 37°57' E 023°36'0 0.0
2017-Nov-09 19:30N 37°57' E 023°36'0 0.0
2017-Nov-09 19:00N 37°57' E 023°36'0 0.0
2017-Nov-09 18:30N 37°57' E 023°36'0 0.0
2017-Nov-09 18:00N 37°57' E 023°36'0 0.0
2017-Nov-09 17:30N 37°57' E 023°36'0 0.0
2017-Nov-09 17:00N 37°57' E 023°36'0 0.0
2017-Nov-09 16:30N 37°57' E 023°36'0 0.0
2017-Nov-09 16:00N 37°57' E 023°36'0 0.0
2017-Nov-09 15:30N 37°57' E 023°36'0 0.0
2017-Nov-09 15:00N 37°57' E 023°36'0 0.0
2017-Nov-09 14:30N 37°57' E 023°36'0 0.0
2017-Nov-09 14:00N 37°57' E 023°36'0 0.0
2017-Nov-09 13:30N 37°57' E 023°36'0 0.0
2017-Nov-09 13:00N 37°57' E 023°36'0 0.0
2017-Nov-09 12:30N 37°57' E 023°36'0 0.0
2017-Nov-09 12:00N 37°57' E 023°36'0 0.0
2017-Nov-09 11:30N 37°57' E 023°36'0 0.0
2017-Nov-09 11:00N 37°57' E 023°36'0 0.0
2017-Nov-09 10:30N 37°57' E 023°36'0 0.0
2017-Nov-09 10:00N 37°57' E 023°36'0 0.0
2017-Nov-09 09:30N 37°57' E 023°36'0 0.0
2017-Nov-09 09:00N 37°57' E 023°36'0 0.0
2017-Nov-09 08:30N 37°57' E 023°36'0 0.0
2017-Nov-09 08:00N 37°57' E 023°36'0 0.0
2017-Nov-09 07:30N 37°57' E 023°36'0 0.0
2017-Nov-09 07:00N 37°57' E 023°36'0 0.0
2017-Nov-09 06:30N 37°57' E 023°36'0 0.0
2017-Nov-09 06:00N 37°57' E 023°36'0 0.0
2017-Nov-09 05:30N 37°57' E 023°36'0 0.0
2017-Nov-09 05:00N 37°57' E 023°36'0 0.0
2017-Nov-09 04:30N 37°57' E 023°36'0 0.0
2017-Nov-09 04:00N 37°57' E 023°36'0 0.0
2017-Nov-09 03:30N 37°57' E 023°36'0 0.0
2017-Nov-09 03:00N 37°57' E 023°36'0 0.0
2017-Nov-09 02:30N 37°57' E 023°36'0 0.0
2017-Nov-09 02:00N 37°57' E 023°36'0 0.0
2017-Nov-09 01:30N 37°57' E 023°36'0 0.0
2017-Nov-09 01:00N 37°57' E 023°36'0 0.0
2017-Nov-09 00:30N 37°57' E 023°36'0 0.0
2017-Nov-09 00:00N 37°57' E 023°36'0 0.0
2017-Nov-08 23:30N 37°57' E 023°36'0 0.0
2017-Nov-08 23:00N 37°57' E 023°36'0 0.0
2017-Nov-08 22:30N 37°57' E 023°36'0 0.0
2017-Nov-08 22:00N 37°57' E 023°36'0 0.0
2017-Nov-08 21:30N 37°57' E 023°36'0 0.0
2017-Nov-08 21:00N 37°57' E 023°36'0 0.0
2017-Nov-08 20:30N 37°57' E 023°36'0 0.0
2017-Nov-08 20:00N 37°57' E 023°36'0 0.0
2017-Nov-08 19:30N 37°57' E 023°36'0 0.0
2017-Nov-08 19:00N 37°57' E 023°36'0 0.0
2017-Nov-08 18:30N 37°57' E 023°36'0 0.0
2017-Nov-08 18:00N 37°57' E 023°36'0 0.0
2017-Nov-08 17:30N 37°57' E 023°36'0 0.0
2017-Nov-08 17:00N 37°57' E 023°36'0 0.0
2017-Nov-08 16:30N 37°57' E 023°36'0 0.0
2017-Nov-08 16:00N 37°57' E 023°36'0 0.0
2017-Nov-08 15:30N 37°57' E 023°36'0 0.0
2017-Nov-08 15:00N 37°57' E 023°36'0 0.0
2017-Nov-08 14:30N 37°57' E 023°36'0 0.0
2017-Nov-08 14:00N 37°57' E 023°36'0 0.0
2017-Nov-08 13:30N 37°57' E 023°36'0 0.0
2017-Nov-08 13:00N 37°57' E 023°36'0 0.0
2017-Nov-08 12:30N 37°57' E 023°36'0 0.0
2017-Nov-08 12:00N 37°57' E 023°36'0 0.0
2017-Nov-08 11:30N 37°57' E 023°36'1 2.9
2017-Nov-08 11:01N 37°58' E 023°34'0 0.3
2017-Nov-08 10:30N 37°58' E 023°34'0 0.0
2017-Nov-08 10:00N 37°58' E 023°34'0 0.0
2017-Nov-08 07:03N 37°58' E 023°34'0 0.0
2017-Nov-08 07:00N 37°58' E 023°34'0 0.0
2017-Nov-08 06:30N 37°58' E 023°34'0 0.0
2017-Nov-08 06:00N 37°58' E 023°34'0 0.0
2017-Nov-08 05:30N 37°58' E 023°34'0 0.0
2017-Nov-08 05:00N 37°58' E 023°34'0 0.0
2017-Nov-08 04:30N 37°58' E 023°34'0 0.0
2017-Nov-08 04:00N 37°58' E 023°34'0 0.0
2017-Nov-08 03:30N 37°58' E 023°34'0 0.0
2017-Nov-08 03:00N 37°58' E 023°34'0 0.0
2017-Nov-08 02:30N 37°58' E 023°34'0 0.0
2017-Nov-08 02:00N 37°58' E 023°34'0 0.0
2017-Nov-08 01:30N 37°58' E 023°34'0 0.0
2017-Nov-08 01:00N 37°58' E 023°34'0 0.0
2017-Nov-08 00:30N 37°58' E 023°34'0 0.0
2017-Nov-08 00:00N 37°58' E 023°34'0 0.0
2017-Nov-07 23:30N 37°58' E 023°34'0 0.0
2017-Nov-07 23:00N 37°58' E 023°34'0 0.0
2017-Nov-07 22:30N 37°58' E 023°34'0 0.0
2017-Nov-07 22:00N 37°58' E 023°34'0 0.0
2017-Nov-07 21:30N 37°58' E 023°34'0 0.0
2017-Nov-07 21:00N 37°58' E 023°34'0 0.0
2017-Nov-07 20:30N 37°58' E 023°34'0 0.0
2017-Nov-07 20:00N 37°58' E 023°34'0 0.0
2017-Nov-07 19:30N 37°58' E 023°34'0 0.0
2017-Nov-07 19:00N 37°58' E 023°34'0 0.0
2017-Nov-07 18:30N 37°58' E 023°34'0 0.0
2017-Nov-07 18:00N 37°58' E 023°34'0 0.0
2017-Nov-07 17:30N 37°58' E 023°34'0 0.0
2017-Nov-07 17:00N 37°58' E 023°34'0 0.0
2017-Nov-07 16:30N 37°58' E 023°34'0 0.0
2017-Nov-07 16:00N 37°58' E 023°34'0 0.0
2017-Nov-07 15:30N 37°58' E 023°34'0 0.0
2017-Nov-07 15:00N 37°58' E 023°34'0 0.0
2017-Nov-07 14:30N 37°58' E 023°34'0 0.0
2017-Nov-07 14:00N 37°58' E 023°34'0 0.0
2017-Nov-07 13:30N 37°58' E 023°34'0 0.0
2017-Nov-07 13:00N 37°58' E 023°34'0 0.0
2017-Nov-07 12:30N 37°58' E 023°34'0 0.0
2017-Nov-07 12:00N 37°58' E 023°34'0 0.0
2017-Nov-07 11:30N 37°58' E 023°34'0 0.0
2017-Nov-07 11:00N 37°58' E 023°34'0 0.0
2017-Nov-07 10:30N 37°58' E 023°34'0 0.0
2017-Nov-07 10:00N 37°58' E 023°34'0 0.0
2017-Nov-07 09:30N 37°58' E 023°34'0 0.0
2017-Nov-07 09:00N 37°58' E 023°34'0 0.0
2017-Nov-07 08:30N 37°58' E 023°34'0 0.0
2017-Nov-07 08:00N 37°58' E 023°34'0 0.0
2017-Nov-07 07:30N 37°58' E 023°34'0 0.0
2017-Nov-07 07:00N 37°58' E 023°34'0 0.0
2017-Nov-07 06:30N 37°58' E 023°34'0 0.0
2017-Nov-07 06:00N 37°58' E 023°34'0 0.0
2017-Nov-07 05:30N 37°58' E 023°34'0 0.0
2017-Nov-07 05:00N 37°58' E 023°34'0 0.0
2017-Nov-07 04:30N 37°58' E 023°34'0 0.0
2017-Nov-07 04:00N 37°58' E 023°34'0 0.0
2017-Nov-07 03:30N 37°58' E 023°34'0 0.0
2017-Nov-07 03:00N 37°58' E 023°34'0 0.0
2017-Nov-07 02:30N 37°58' E 023°34'0 0.0
2017-Nov-07 02:00N 37°58' E 023°34'0 0.0
2017-Nov-07 01:30N 37°58' E 023°34'0 0.0
2017-Nov-07 01:00N 37°58' E 023°34'0 0.0
2017-Nov-07 00:30N 37°58' E 023°34'0 0.0
2017-Nov-07 00:00N 37°58' E 023°34'0 0.0
2017-Nov-06 23:30N 37°58' E 023°34'0 0.0
2017-Nov-06 23:00N 37°58' E 023°34'0 0.0
2017-Nov-06 22:30N 37°58' E 023°34'0 0.0
2017-Nov-06 22:00N 37°58' E 023°34'0 0.0
2017-Nov-06 21:30N 37°58' E 023°34'0 0.0
2017-Nov-06 21:00N 37°58' E 023°34'0 0.0
2017-Nov-06 20:30N 37°58' E 023°34'0 0.0
2017-Nov-06 02:30N 37°58' E 023°34'0 0.0
2017-Nov-06 02:00N 37°58' E 023°34'0 0.0
2017-Nov-06 01:30N 37°58' E 023°34'0 0.0
2017-Nov-06 01:00N 37°58' E 023°34'0 0.0
2017-Nov-06 00:30N 37°58' E 023°34'0 0.0
2017-Nov-06 00:00N 37°58' E 023°34'0 0.0
2017-Nov-05 23:30N 37°58' E 023°34'0 0.0
2017-Nov-05 23:00N 37°58' E 023°34'0 0.0
2017-Nov-05 22:30N 37°58' E 023°34'0 0.0
2017-Nov-05 22:00N 37°58' E 023°34'0 0.0
2017-Nov-05 21:30N 37°58' E 023°34'0 0.0
2017-Nov-05 21:00N 37°58' E 023°34'0 0.0
2017-Nov-05 20:30N 37°58' E 023°34'0 0.0
2017-Nov-05 20:00N 37°58' E 023°34'0 0.0
2017-Nov-05 19:30N 37°58' E 023°34'0 0.0
2017-Nov-05 19:00N 37°58' E 023°34'0 0.0
2017-Nov-05 18:30N 37°58' E 023°34'0 0.0
2017-Nov-05 18:00N 37°58' E 023°34'0 0.0
2017-Nov-05 17:30N 37°58' E 023°34'0 0.0
2017-Nov-05 17:00N 37°58' E 023°34'0 0.0
2017-Nov-05 16:30N 37°58' E 023°34'0 0.0
2017-Nov-05 16:00N 37°58' E 023°34'0 0.0
2017-Nov-05 15:30N 37°58' E 023°34'0 0.0
2017-Nov-05 15:00N 37°58' E 023°34'0 0.0
2017-Nov-05 14:30N 37°58' E 023°34'0 0.0
2017-Nov-05 14:00N 37°58' E 023°34'0 0.0
2017-Nov-05 13:30N 37°58' E 023°34'0 0.0
2017-Nov-05 13:00N 37°58' E 023°34'0 0.0
2017-Nov-05 12:30N 37°58' E 023°34'0 0.0
2017-Nov-05 12:00N 37°58' E 023°34'0 0.0
2017-Nov-05 11:30N 37°58' E 023°34'0 0.0
2017-Nov-05 11:00N 37°58' E 023°34'0 0.0
2017-Nov-05 10:30N 37°58' E 023°34'0 0.0
2017-Nov-05 10:00N 37°58' E 023°34'0 0.0
2017-Nov-05 09:30N 37°58' E 023°34'0 0.0
2017-Nov-05 09:00N 37°58' E 023°34'0 0.0
2017-Nov-05 08:30N 37°58' E 023°34'0 0.0
2017-Nov-05 08:00N 37°58' E 023°34'0 0.0
2017-Nov-05 07:30N 37°58' E 023°34'0 0.0
2017-Nov-05 07:00N 37°58' E 023°34'0 0.0
2017-Nov-05 06:30N 37°58' E 023°34'0 0.0
2017-Nov-05 06:00N 37°58' E 023°34'0 0.0
2017-Nov-05 05:30N 37°58' E 023°34'0 0.0
2017-Nov-05 05:00N 37°58' E 023°34'0 0.0
2017-Nov-05 04:30N 37°58' E 023°34'0 0.0
2017-Nov-05 04:00N 37°58' E 023°34'0 0.0
2017-Nov-05 03:30N 37°58' E 023°34'0 0.0
2017-Nov-05 03:00N 37°58' E 023°34'0 0.0
2017-Nov-05 02:30N 37°58' E 023°34'0 0.0
2017-Nov-05 02:00N 37°58' E 023°34'0 0.0
2017-Nov-05 01:30N 37°58' E 023°34'0 0.0
2017-Nov-05 01:00N 37°58' E 023°34'0 0.0
2017-Nov-05 00:30N 37°58' E 023°34'0 0.0
2017-Nov-05 00:00N 37°58' E 023°34'0 0.0
2017-Nov-04 23:30N 37°58' E 023°34'0 0.0
2017-Nov-04 23:00N 37°58' E 023°34'0 0.0
2017-Nov-04 22:30N 37°58' E 023°34'0 0.0
2017-Nov-04 22:00N 37°58' E 023°34'0 0.0
2017-Nov-04 21:30N 37°58' E 023°34'0 0.0
2017-Nov-04 21:00N 37°58' E 023°34'0 0.0
2017-Nov-04 20:30N 37°58' E 023°34'0 0.0
2017-Nov-04 20:00N 37°58' E 023°34'0 0.0
2017-Nov-04 19:30N 37°58' E 023°34'0 0.0
2017-Nov-04 19:00N 37°58' E 023°34'0 0.0
2017-Nov-04 18:30N 37°58' E 023°34'0 0.0
2017-Nov-04 18:00N 37°58' E 023°34'0 0.0
2017-Nov-04 17:30N 37°58' E 023°34'0 0.0
2017-Nov-04 17:00N 37°58' E 023°34'0 0.0
2017-Nov-04 16:30N 37°58' E 023°34'0 0.0
2017-Nov-04 16:00N 37°58' E 023°34'0 0.0
2017-Nov-04 15:30N 37°58' E 023°34'0 0.0
2017-Nov-04 15:00N 37°58' E 023°34'0 0.0
2017-Nov-04 14:30N 37°58' E 023°34'0 0.0
2017-Nov-04 14:00N 37°58' E 023°34'0 0.0
2017-Nov-04 13:30N 37°58' E 023°34'0 0.0
2017-Nov-04 13:00N 37°58' E 023°34'0 0.0
2017-Nov-04 12:30N 37°58' E 023°34'0 0.0
2017-Nov-04 12:00N 37°58' E 023°34'0 0.0
2017-Nov-04 11:30N 37°58' E 023°34'0 0.0
2017-Nov-04 11:00N 37°58' E 023°34'0 0.0
2017-Nov-04 10:30N 37°58' E 023°34'0 0.0
2017-Nov-04 10:00N 37°58' E 023°34'0 0.0
2017-Nov-04 09:30N 37°58' E 023°34'0 0.0
2017-Nov-04 09:00N 37°58' E 023°34'0 0.0
2017-Nov-04 08:30N 37°58' E 023°34'0 0.0
2017-Nov-04 08:00N 37°58' E 023°34'0 0.0
2017-Nov-04 07:30N 37°58' E 023°34'0 0.0
2017-Nov-04 07:00N 37°58' E 023°34'0 0.0
2017-Nov-04 06:30N 37°58' E 023°34'0 0.0
2017-Nov-04 06:00N 37°58' E 023°34'0 0.0
2017-Nov-04 05:30N 37°58' E 023°34'0 0.0
2017-Nov-04 05:00N 37°58' E 023°34'0 0.0
2017-Nov-04 04:30N 37°58' E 023°34'0 0.0
2017-Nov-04 04:00N 37°58' E 023°34'0 0.0
2017-Nov-04 03:30N 37°58' E 023°34'0 0.0
2017-Nov-04 03:00N 37°58' E 023°34'0 0.0
2017-Nov-04 02:30N 37°58' E 023°34'0 0.0
2017-Nov-04 02:00N 37°58' E 023°34'0 0.0
2017-Nov-04 01:30N 37°58' E 023°34'0 0.0
2017-Nov-04 01:00N 37°58' E 023°34'0 0.0
2017-Nov-04 00:30N 37°58' E 023°34'0 0.0
2017-Nov-04 00:00N 37°58' E 023°34'0 0.0
2017-Nov-03 23:30N 37°58' E 023°34'0 0.0
2017-Nov-03 23:00N 37°58' E 023°34'0 0.0
2017-Nov-03 22:30N 37°58' E 023°34'0 0.0
2017-Nov-03 22:00N 37°58' E 023°34'0 0.0
2017-Nov-03 21:30N 37°58' E 023°34'0 0.0
2017-Nov-03 21:00N 37°58' E 023°34'0 0.0
2017-Nov-03 20:30N 37°58' E 023°34'0 0.0
2017-Nov-03 20:00N 37°58' E 023°34'0 0.0
2017-Nov-03 19:30N 37°58' E 023°34'0 0.0
2017-Nov-03 19:00N 37°58' E 023°34'0 0.0
2017-Nov-03 18:30N 37°58' E 023°34'0 0.0
2017-Nov-03 18:00N 37°58' E 023°34'0 0.0
2017-Nov-03 17:30N 37°58' E 023°34'0 0.0
2017-Nov-03 17:00N 37°58' E 023°34'0 0.0
2017-Nov-03 16:30N 37°58' E 023°34'0 0.0
2017-Nov-03 16:00N 37°58' E 023°34'0 0.0
2017-Nov-03 15:30N 37°58' E 023°34'0 0.0
2017-Nov-03 15:00N 37°58' E 023°34'0 0.0
2017-Nov-03 14:30N 37°58' E 023°34'0 0.0
2017-Nov-03 14:00N 37°58' E 023°34'0 0.0
2017-Nov-03 13:30N 37°58' E 023°34'0 0.0
2017-Nov-03 13:00N 37°58' E 023°34'0 0.0
2017-Nov-03 12:30N 37°58' E 023°34'0 0.0
2017-Nov-03 12:00N 37°58' E 023°34'0 0.0
2017-Nov-03 11:30N 37°58' E 023°34'0 0.0
2017-Nov-03 11:00N 37°58' E 023°34'0 0.0
2017-Nov-03 10:30N 37°58' E 023°34'0 0.0
2017-Nov-03 10:00N 37°58' E 023°34'0 0.0
2017-Nov-03 09:30N 37°58' E 023°34'0 0.0
2017-Nov-03 09:00N 37°58' E 023°34'0 0.0
2017-Nov-03 08:30N 37°58' E 023°34'0 0.0
2017-Nov-03 08:00N 37°58' E 023°34'0 0.0
2017-Nov-03 07:30N 37°58' E 023°34'0 0.0
2017-Nov-03 07:00N 37°58' E 023°34'0 0.0
2017-Nov-03 06:30N 37°58' E 023°34'0 0.0
2017-Nov-03 06:00N 37°58' E 023°34'0 0.0
2017-Nov-03 05:30N 37°58' E 023°34'0 0.0
2017-Nov-03 05:00N 37°58' E 023°34'0 0.0
2017-Nov-03 04:30N 37°58' E 023°34'0 0.0
2017-Nov-03 04:00N 37°58' E 023°34'0 0.0
2017-Nov-03 03:30N 37°58' E 023°34'0 0.0
2017-Nov-03 03:01N 37°58' E 023°34'0 0.0
2017-Nov-03 02:30N 37°58' E 023°34'0 0.0
2017-Nov-03 02:00N 37°58' E 023°34'0 0.0
2017-Nov-03 01:30N 37°58' E 023°34'0 0.0
2017-Nov-03 01:00N 37°58' E 023°34'0 0.0
2017-Nov-03 00:30N 37°58' E 023°34'0 0.0
2017-Nov-03 00:00N 37°58' E 023°34'0 0.0
2017-Nov-02 23:30N 37°58' E 023°34'0 0.0
2017-Nov-02 23:00N 37°58' E 023°34'0 0.0
2017-Nov-02 22:30N 37°58' E 023°34'0 0.0
2017-Nov-02 22:00N 37°58' E 023°34'0 0.0
2017-Nov-02 21:30N 37°58' E 023°34'0 0.0
2017-Nov-02 21:00N 37°58' E 023°34'0 0.0
2017-Nov-02 20:30N 37°58' E 023°34'0 0.0
2017-Nov-02 20:00N 37°58' E 023°34'0 0.0
2017-Nov-02 19:30N 37°58' E 023°34'0 0.0
2017-Nov-02 19:00N 37°58' E 023°34'0 0.0
2017-Nov-02 18:30N 37°58' E 023°34'0 0.0
2017-Nov-02 18:00N 37°58' E 023°34'0 0.0
2017-Nov-02 17:30N 37°58' E 023°34'0 0.0
2017-Nov-02 17:00N 37°58' E 023°34'0 0.0
2017-Nov-02 16:30N 37°58' E 023°34'0 0.0
2017-Nov-02 16:00N 37°58' E 023°34'0 0.0
2017-Nov-02 15:30N 37°58' E 023°34'0 0.0
2017-Nov-02 15:00N 37°58' E 023°34'0 0.0
2017-Nov-02 14:30N 37°58' E 023°34'0 0.0
2017-Nov-02 14:01N 37°58' E 023°34'0 0.0
2017-Nov-02 13:30N 37°58' E 023°34'0 0.0
2017-Nov-02 13:01N 37°58' E 023°34'0 0.0
2017-Nov-02 11:17N 37°58' E 023°34'0 0.0
2017-Nov-02 11:00N 37°58' E 023°34'0 0.0
2017-Nov-02 10:31N 37°58' E 023°34'0 0.0
2017-Nov-02 10:00N 37°58' E 023°34'0 0.0
2017-Nov-02 09:30N 37°58' E 023°34'0 0.0
2017-Nov-02 09:00N 37°58' E 023°34'0 0.0
2017-Nov-02 08:30N 37°58' E 023°34'0 0.0
2017-Nov-02 08:01N 37°58' E 023°34'0 0.0
2017-Nov-02 07:31N 37°58' E 023°34'0 0.0
2017-Nov-02 07:00N 37°58' E 023°34'0 0.0
2017-Nov-02 06:31N 37°58' E 023°34'0 0.0
2017-Nov-02 06:00N 37°58' E 023°34'0 0.0
2017-Nov-02 05:30N 37°58' E 023°34'0 0.0
2017-Nov-02 05:00N 37°58' E 023°34'0 0.0
2017-Nov-02 04:30N 37°58' E 023°34'0 0.0
2017-Nov-02 04:01N 37°58' E 023°34'0 0.0
2017-Nov-02 03:30N 37°58' E 023°34'0 0.0
2017-Nov-02 03:00N 37°58' E 023°34'0 0.0
2017-Nov-02 02:31N 37°58' E 023°34'0 0.0
2017-Nov-02 02:00N 37°58' E 023°34'0 0.0
2017-Nov-02 01:31N 37°58' E 023°34'0 0.0
2017-Nov-02 01:00N 37°58' E 023°34'0 0.0
2017-Nov-02 00:31N 37°58' E 023°34'0 0.0
2017-Nov-02 00:00N 37°58' E 023°34'0 0.0
2017-Nov-01 23:30N 37°58' E 023°34'0 0.0
2017-Nov-01 23:00N 37°58' E 023°34'0 0.0
2017-Nov-01 22:31N 37°58' E 023°34'0 0.0
2017-Nov-01 22:00N 37°58' E 023°34'0 0.0
2017-Nov-01 21:31N 37°58' E 023°34'0 0.0
2017-Nov-01 21:00N 37°58' E 023°34'0 0.0
2017-Nov-01 20:30N 37°58' E 023°34'0 0.0
2017-Nov-01 20:00N 37°58' E 023°34'0 0.0
2017-Nov-01 19:31N 37°58' E 023°34'0 0.0
2017-Nov-01 19:01N 37°58' E 023°34'0 0.0
2017-Nov-01 18:30N 37°58' E 023°34'0 0.0
2017-Nov-01 02:01N 37°58' E 023°34'0 0.0
2017-Nov-01 01:30N 37°58' E 023°34'0 0.0
2017-Nov-01 01:00N 37°58' E 023°34'0 0.0
2017-Nov-01 00:31N 37°58' E 023°34'0 0.0
2017-Nov-01 00:00N 37°58' E 023°34'0 0.0
2017-Oct-31 23:30N 37°58' E 023°34'0 0.0
2017-Oct-31 23:00N 37°58' E 023°34'0 0.0
2017-Oct-31 22:30N 37°58' E 023°34'0 0.0
2017-Oct-31 22:00N 37°58' E 023°34'0 0.0
2017-Oct-31 21:31N 37°58' E 023°34'0 0.0
2017-Oct-31 21:00N 37°58' E 023°34'0 0.0
2017-Oct-31 20:30N 37°58' E 023°34'0 0.0
2017-Oct-31 20:01N 37°58' E 023°34'0 0.0
2017-Oct-31 19:30N 37°58' E 023°34'0 0.0
2017-Oct-31 19:01N 37°58' E 023°34'0 0.0
2017-Oct-31 18:31N 37°58' E 023°34'0 0.0
2017-Oct-31 18:00N 37°58' E 023°34'0 0.0
2017-Oct-31 17:31N 37°58' E 023°34'0 0.0
2017-Oct-31 17:01N 37°58' E 023°34'0 0.0
2017-Oct-31 16:30N 37°58' E 023°34'0 0.0
2017-Oct-31 16:01N 37°58' E 023°34'0 0.0
2017-Oct-31 15:30N 37°58' E 023°34'0 0.0
2017-Oct-31 15:01N 37°58' E 023°34'  
Track history (hours):
 
Tides and Currents Weather Stations Pressure Air Temp Water Temp Dewpoint Dewpoint Depression Visibility Wind Speed Wind Dir Waves Ship Positions

Vernicos Master

Last reported at 2017-Nov-10 15:00 UTC. Time now 2017-Nov-20 07:47 UTC.
Position N 37°38' E 024°04'.
Warning: this ship's position is 9 days out of date.

Length 28 m; draft 3.8 m.

Type: Tug. MMSI: 240917000.

Date/timePositionNaut miles runAvg speedWind from/ knotsBaromVisibWave heightAir tempDewpointWater temp
2017-Nov-10 15:00N 37°38' E 024°04'14 9.6
2017-Nov-10 13:29N 37°43' E 023°48'510.2
2017-Nov-10 13:00N 37°47' E 023°43'510.1
2017-Nov-10 12:30N 37°51' E 023°40'5 9.7
2017-Nov-10 12:00N 37°56' E 023°37'0 1.0
2017-Nov-10 11:30N 37°56' E 023°37'0 0.0
2017-Nov-10 11:00N 37°56' E 023°37'0 0.0
2017-Nov-10 10:30N 37°56' E 023°37'0 0.0
2017-Nov-10 10:00N 37°56' E 023°37'0 0.0
2017-Nov-10 09:30N 37°56' E 023°37'0 0.0
2017-Nov-10 09:00N 37°56' E 023°37'0 0.0
2017-Nov-10 08:30N 37°56' E 023°37'0 0.0
2017-Nov-10 08:00N 37°56' E 023°37'1 1.7
2017-Nov-10 07:30N 37°56' E 023°38'0 0.3
2017-Nov-10 07:01N 37°57' E 023°38'2 4.9
2017-Nov-10 06:30N 37°57' E 023°35'1 1.7
2017-Nov-10 06:00N 37°57' E 023°36'0 0.0
2017-Nov-10 05:30N 37°57' E 023°36'0 0.0
2017-Nov-10 05:00N 37°57' E 023°36'0 0.0
2017-Nov-10 04:30N 37°57' E 023°36'0 0.0
2017-Nov-10 04:00N 37°57' E 023°36'0 0.0
2017-Nov-10 03:30N 37°57' E 023°36'0 0.0
2017-Nov-10 03:00N 37°57' E 023°36'0 0.0
2017-Nov-10 02:30N 37°57' E 023°36'0 0.0
2017-Nov-10 02:00N 37°57' E 023°36'0 0.0
2017-Nov-10 01:30N 37°57' E 023°36'0 0.0
2017-Nov-10 01:00N 37°57' E 023°36'0 0.0
2017-Nov-10 00:30N 37°57' E 023°36'0 0.0
2017-Nov-10 00:00N 37°57' E 023°36'0 0.0
2017-Nov-09 23:30N 37°57' E 023°36'0 0.0
2017-Nov-09 23:00N 37°57' E 023°36'0 0.0
2017-Nov-09 22:30N 37°57' E 023°36'0 0.0
2017-Nov-09 22:00N 37°57' E 023°36'0 0.0
2017-Nov-09 21:30N 37°57' E 023°36'0 0.0
2017-Nov-09 21:00N 37°57' E 023°36'0 0.0
2017-Nov-09 20:30N 37°57' E 023°36'0 0.0
2017-Nov-09 20:00N 37°57' E 023°36'0 0.0
2017-Nov-09 19:30N 37°57' E 023°36'0 0.0
2017-Nov-09 19:00N 37°57' E 023°36'0 0.0
2017-Nov-09 18:30N 37°57' E 023°36'0 0.0
2017-Nov-09 18:00N 37°57' E 023°36'0 0.0
2017-Nov-09 17:30N 37°57' E 023°36'0 0.0
2017-Nov-09 17:00N 37°57' E 023°36'0 0.0
2017-Nov-09 16:30N 37°57' E 023°36'0 0.0
2017-Nov-09 16:00N 37°57' E 023°36'0 0.0
2017-Nov-09 15:30N 37°57' E 023°36'0 0.0
2017-Nov-09 15:00N 37°57' E 023°36'0 0.0
2017-Nov-09 14:30N 37°57' E 023°36'0 0.0
2017-Nov-09 14:00N 37°57' E 023°36'0 0.0
2017-Nov-09 13:30N 37°57' E 023°36'0 0.0
2017-Nov-09 13:00N 37°57' E 023°36'0 0.0
2017-Nov-09 12:30N 37°57' E 023°36'0 0.0
2017-Nov-09 12:00N 37°57' E 023°36'0 0.0
2017-Nov-09 11:30N 37°57' E 023°36'0 0.0
2017-Nov-09 11:00N 37°57' E 023°36'0 0.0
2017-Nov-09 10:30N 37°57' E 023°36'0 0.0
2017-Nov-09 10:00N 37°57' E 023°36'0 0.0
2017-Nov-09 09:30N 37°57' E 023°36'0 0.0
2017-Nov-09 09:00N 37°57' E 023°36'0 0.0
2017-Nov-09 08:30N 37°57' E 023°36'0 0.0
2017-Nov-09 08:00N 37°57' E 023°36'0 0.0
2017-Nov-09 07:30N 37°57' E 023°36'0 0.0
2017-Nov-09 07:00N 37°57' E 023°36'0 0.0
2017-Nov-09 06:30N 37°57' E 023°36'0 0.0
2017-Nov-09 06:00N 37°57' E 023°36'0 0.0
2017-Nov-09 05:30N 37°57' E 023°36'0 0.0
2017-Nov-09 05:00N 37°57' E 023°36'0 0.0
2017-Nov-09 04:30N 37°57' E 023°36'0 0.0
2017-Nov-09 04:00N 37°57' E 023°36'0 0.0
2017-Nov-09 03:30N 37°57' E 023°36'0 0.0
2017-Nov-09 03:00N 37°57' E 023°36'0 0.0
2017-Nov-09 02:30N 37°57' E 023°36'0 0.0
2017-Nov-09 02:00N 37°57' E 023°36'0 0.0
2017-Nov-09 01:30N 37°57' E 023°36'0 0.0
2017-Nov-09 01:00N 37°57' E 023°36'0 0.0
2017-Nov-09 00:30N 37°57' E 023°36'0 0.0
2017-Nov-09 00:00N 37°57' E 023°36'0 0.0
2017-Nov-08 23:30N 37°57' E 023°36'0 0.0
2017-Nov-08 23:00N 37°57' E 023°36'0 0.0
2017-Nov-08 22:30N 37°57' E 023°36'0 0.0
2017-Nov-08 22:00N 37°57' E 023°36'0 0.0
2017-Nov-08 21:30N 37°57' E 023°36'0 0.0
2017-Nov-08 21:00N 37°57' E 023°36'0 0.0
2017-Nov-08 20:30N 37°57' E 023°36'0 0.0
2017-Nov-08 20:00N 37°57' E 023°36'0 0.0
2017-Nov-08 19:30N 37°57' E 023°36'0 0.0
2017-Nov-08 19:00N 37°57' E 023°36'0 0.0
2017-Nov-08 18:30N 37°57' E 023°36'0 0.0
2017-Nov-08 18:00N 37°57' E 023°36'0 0.0
2017-Nov-08 17:30N 37°57' E 023°36'0 0.0
2017-Nov-08 17:00N 37°57' E 023°36'0 0.0
2017-Nov-08 16:30N 37°57' E 023°36'0 0.0
2017-Nov-08 16:00N 37°57' E 023°36'0 0.0
2017-Nov-08 15:30N 37°57' E 023°36'0 0.0
2017-Nov-08 15:00N 37°57' E 023°36'0 0.0
2017-Nov-08 14:30N 37°57' E 023°36'0 0.0
2017-Nov-08 14:00N 37°57' E 023°36'0 0.0
2017-Nov-08 13:30N 37°57' E 023°36'0 0.0
2017-Nov-08 13:00N 37°57' E 023°36'0 0.0
2017-Nov-08 12:30N 37°57' E 023°36'0 0.0
2017-Nov-08 12:00N 37°57' E 023°36'0 0.0
2017-Nov-08 11:30N 37°57' E 023°36'1 2.9
2017-Nov-08 11:01N 37°58' E 023°34'0 0.3
2017-Nov-08 10:30N 37°58' E 023°34'0 0.0
2017-Nov-08 10:00N 37°58' E 023°34'0 0.0
2017-Nov-08 07:03N 37°58' E 023°34'0 0.0
2017-Nov-08 07:00N 37°58' E 023°34'0 0.0
2017-Nov-08 06:30N 37°58' E 023°34'0 0.0
2017-Nov-08 06:00N 37°58' E 023°34'0 0.0
2017-Nov-08 05:30N 37°58' E 023°34'0 0.0
2017-Nov-08 05:00N 37°58' E 023°34'0 0.0
2017-Nov-08 04:30N 37°58' E 023°34'0 0.0
2017-Nov-08 04:00N 37°58' E 023°34'0 0.0
2017-Nov-08 03:30N 37°58' E 023°34'0 0.0
2017-Nov-08 03:00N 37°58' E 023°34'0 0.0
2017-Nov-08 02:30N 37°58' E 023°34'0 0.0
2017-Nov-08 02:00N 37°58' E 023°34'0 0.0
2017-Nov-08 01:30N 37°58' E 023°34'0 0.0
2017-Nov-08 01:00N 37°58' E 023°34'0 0.0
2017-Nov-08 00:30N 37°58' E 023°34'0 0.0
2017-Nov-08 00:00N 37°58' E 023°34'0 0.0
2017-Nov-07 23:30N 37°58' E 023°34'0 0.0
2017-Nov-07 23:00N 37°58' E 023°34'0 0.0
2017-Nov-07 22:30N 37°58' E 023°34'0 0.0
2017-Nov-07 22:00N 37°58' E 023°34'0 0.0
2017-Nov-07 21:30N 37°58' E 023°34'0 0.0
2017-Nov-07 21:00N 37°58' E 023°34'0 0.0
2017-Nov-07 20:30N 37°58' E 023°34'0 0.0
2017-Nov-07 20:00N 37°58' E 023°34'0 0.0
2017-Nov-07 19:30N 37°58' E 023°34'0 0.0
2017-Nov-07 19:00N 37°58' E 023°34'0 0.0
2017-Nov-07 18:30N 37°58' E 023°34'0 0.0
2017-Nov-07 18:00N 37°58' E 023°34'0 0.0
2017-Nov-07 17:30N 37°58' E 023°34'0 0.0
2017-Nov-07 17:00N 37°58' E 023°34'0 0.0
2017-Nov-07 16:30N 37°58' E 023°34'0 0.0
2017-Nov-07 16:00N 37°58' E 023°34'0 0.0
2017-Nov-07 15:30N 37°58' E 023°34'0 0.0
2017-Nov-07 15:00N 37°58' E 023°34'0 0.0
2017-Nov-07 14:30N 37°58' E 023°34'0 0.0
2017-Nov-07 14:00N 37°58' E 023°34'0 0.0
2017-Nov-07 13:30N 37°58' E 023°34'0 0.0
2017-Nov-07 13:00N 37°58' E 023°34'0 0.0
2017-Nov-07 12:30N 37°58' E 023°34'0 0.0
2017-Nov-07 12:00N 37°58' E 023°34'0 0.0
2017-Nov-07 11:30N 37°58' E 023°34'0 0.0
2017-Nov-07 11:00N 37°58' E 023°34'0 0.0
2017-Nov-07 10:30N 37°58' E 023°34'0 0.0
2017-Nov-07 10:00N 37°58' E 023°34'0 0.0
2017-Nov-07 09:30N 37°58' E 023°34'0 0.0
2017-Nov-07 09:00N 37°58' E 023°34'0 0.0
2017-Nov-07 08:30N 37°58' E 023°34'0 0.0
2017-Nov-07 08:00N 37°58' E 023°34'0 0.0
2017-Nov-07 07:30N 37°58' E 023°34'0 0.0
2017-Nov-07 07:00N 37°58' E 023°34'0 0.0
2017-Nov-07 06:30N 37°58' E 023°34'0 0.0
2017-Nov-07 06:00N 37°58' E 023°34'0 0.0
2017-Nov-07 05:30N 37°58' E 023°34'0 0.0
2017-Nov-07 05:00N 37°58' E 023°34'0 0.0
2017-Nov-07 04:30N 37°58' E 023°34'0 0.0
2017-Nov-07 04:00N 37°58' E 023°34'0 0.0
2017-Nov-07 03:30N 37°58' E 023°34'0 0.0
2017-Nov-07 03:00N 37°58' E 023°34'0 0.0
2017-Nov-07 02:30N 37°58' E 023°34'0 0.0
2017-Nov-07 02:00N 37°58' E 023°34'0 0.0
2017-Nov-07 01:30N 37°58' E 023°34'0 0.0
2017-Nov-07 01:00N 37°58' E 023°34'0 0.0
2017-Nov-07 00:30N 37°58' E 023°34'0 0.0
2017-Nov-07 00:00N 37°58' E 023°34'0 0.0
2017-Nov-06 23:30N 37°58' E 023°34'0 0.0
2017-Nov-06 23:00N 37°58' E 023°34'0 0.0
2017-Nov-06 22:30N 37°58' E 023°34'0 0.0
2017-Nov-06 22:00N 37°58' E 023°34'0 0.0
2017-Nov-06 21:30N 37°58' E 023°34'0 0.0
2017-Nov-06 21:00N 37°58' E 023°34'0 0.0
2017-Nov-06 20:30N 37°58' E 023°34'0 0.0
2017-Nov-06 02:30N 37°58' E 023°34'0 0.0
2017-Nov-06 02:00N 37°58' E 023°34'0 0.0
2017-Nov-06 01:30N 37°58' E 023°34'0 0.0
2017-Nov-06 01:00N 37°58' E 023°34'0 0.0
2017-Nov-06 00:30N 37°58' E 023°34'0 0.0
2017-Nov-06 00:00N 37°58' E 023°34'0 0.0
2017-Nov-05 23:30N 37°58' E 023°34'0 0.0
2017-Nov-05 23:00N 37°58' E 023°34'0 0.0
2017-Nov-05 22:30N 37°58' E 023°34'0 0.0
2017-Nov-05 22:00N 37°58' E 023°34'0 0.0
2017-Nov-05 21:30N 37°58' E 023°34'0 0.0
2017-Nov-05 21:00N 37°58' E 023°34'0 0.0
2017-Nov-05 20:30N 37°58' E 023°34'0 0.0
2017-Nov-05 20:00N 37°58' E 023°34'0 0.0
2017-Nov-05 19:30N 37°58' E 023°34'0 0.0
2017-Nov-05 19:00N 37°58' E 023°34'0 0.0
2017-Nov-05 18:30N 37°58' E 023°34'0 0.0
2017-Nov-05 18:00N 37°58' E 023°34'0 0.0
2017-Nov-05 17:30N 37°58' E 023°34'0 0.0
2017-Nov-05 17:00N 37°58' E 023°34'0 0.0
2017-Nov-05 16:30N 37°58' E 023°34'0 0.0
2017-Nov-05 16:00N 37°58' E 023°34'0 0.0
2017-Nov-05 15:30N 37°58' E 023°34'0 0.0
2017-Nov-05 15:00N 37°58' E 023°34'0 0.0
2017-Nov-05 14:30N 37°58' E 023°34'0 0.0
2017-Nov-05 14:00N 37°58' E 023°34'0 0.0
2017-Nov-05 13:30N 37°58' E 023°34'0 0.0
2017-Nov-05 13:00N 37°58' E 023°34'0 0.0
2017-Nov-05 12:30N 37°58' E 023°34'0 0.0
2017-Nov-05 12:00N 37°58' E 023°34'0 0.0
2017-Nov-05 11:30N 37°58' E 023°34'0 0.0
2017-Nov-05 11:00N 37°58' E 023°34'0 0.0
2017-Nov-05 10:30N 37°58' E 023°34'0 0.0
2017-Nov-05 10:00N 37°58' E 023°34'0 0.0
2017-Nov-05 09:30N 37°58' E 023°34'0 0.0
2017-Nov-05 09:00N 37°58' E 023°34'0 0.0
2017-Nov-05 08:30N 37°58' E 023°34'0 0.0
2017-Nov-05 08:00N 37°58' E 023°34'0 0.0
2017-Nov-05 07:30N 37°58' E 023°34'0 0.0
2017-Nov-05 07:00N 37°58' E 023°34'0 0.0
2017-Nov-05 06:30N 37°58' E 023°34'0 0.0
2017-Nov-05 06:00N 37°58' E 023°34'0 0.0
2017-Nov-05 05:30N 37°58' E 023°34'0 0.0
2017-Nov-05 05:00N 37°58' E 023°34'0 0.0
2017-Nov-05 04:30N 37°58' E 023°34'0 0.0
2017-Nov-05 04:00N 37°58' E 023°34'0 0.0
2017-Nov-05 03:30N 37°58' E 023°34'0 0.0
2017-Nov-05 03:00N 37°58' E 023°34'0 0.0
2017-Nov-05 02:30N 37°58' E 023°34'0 0.0
2017-Nov-05 02:00N 37°58' E 023°34'0 0.0
2017-Nov-05 01:30N 37°58' E 023°34'0 0.0
2017-Nov-05 01:00N 37°58' E 023°34'0 0.0
2017-Nov-05 00:30N 37°58' E 023°34'0 0.0
2017-Nov-05 00:00N 37°58' E 023°34'0 0.0
2017-Nov-04 23:30N 37°58' E 023°34'0 0.0
2017-Nov-04 23:00N 37°58' E 023°34'0 0.0
2017-Nov-04 22:30N 37°58' E 023°34'0 0.0
2017-Nov-04 22:00N 37°58' E 023°34'0 0.0
2017-Nov-04 21:30N 37°58' E 023°34'0 0.0
2017-Nov-04 21:00N 37°58' E 023°34'0 0.0
2017-Nov-04 20:30N 37°58' E 023°34'0 0.0
2017-Nov-04 20:00N 37°58' E 023°34'0 0.0
2017-Nov-04 19:30N 37°58' E 023°34'0 0.0
2017-Nov-04 19:00N 37°58' E 023°34'0 0.0
2017-Nov-04 18:30N 37°58' E 023°34'0 0.0
2017-Nov-04 18:00N 37°58' E 023°34'0 0.0
2017-Nov-04 17:30N 37°58' E 023°34'0 0.0
2017-Nov-04 17:00N 37°58' E 023°34'0 0.0
2017-Nov-04 16:30N 37°58' E 023°34'0 0.0
2017-Nov-04 16:00N 37°58' E 023°34'0 0.0
2017-Nov-04 15:30N 37°58' E 023°34'0 0.0
2017-Nov-04 15:00N 37°58' E 023°34'0 0.0
2017-Nov-04 14:30N 37°58' E 023°34'0 0.0
2017-Nov-04 14:00N 37°58' E 023°34'0 0.0
2017-Nov-04 13:30N 37°58' E 023°34'0 0.0
2017-Nov-04 13:00N 37°58' E 023°34'0 0.0
2017-Nov-04 12:30N 37°58' E 023°34'0 0.0
2017-Nov-04 12:00N 37°58' E 023°34'0 0.0
2017-Nov-04 11:30N 37°58' E 023°34'0 0.0
2017-Nov-04 11:00N 37°58' E 023°34'0 0.0
2017-Nov-04 10:30N 37°58' E 023°34'0 0.0
2017-Nov-04 10:00N 37°58' E 023°34'0 0.0
2017-Nov-04 09:30N 37°58' E 023°34'0 0.0
2017-Nov-04 09:00N 37°58' E 023°34'0 0.0
2017-Nov-04 08:30N 37°58' E 023°34'0 0.0
2017-Nov-04 08:00N 37°58' E 023°34'0 0.0
2017-Nov-04 07:30N 37°58' E 023°34'0 0.0
2017-Nov-04 07:00N 37°58' E 023°34'0 0.0
2017-Nov-04 06:30N 37°58' E 023°34'0 0.0
2017-Nov-04 06:00N 37°58' E 023°34'0 0.0
2017-Nov-04 05:30N 37°58' E 023°34'0 0.0
2017-Nov-04 05:00N 37°58' E 023°34'0 0.0
2017-Nov-04 04:30N 37°58' E 023°34'0 0.0
2017-Nov-04 04:00N 37°58' E 023°34'0 0.0
2017-Nov-04 03:30N 37°58' E 023°34'0 0.0
2017-Nov-04 03:00N 37°58' E 023°34'0 0.0
2017-Nov-04 02:30N 37°58' E 023°34'0 0.0
2017-Nov-04 02:00N 37°58' E 023°34'0 0.0
2017-Nov-04 01:30N 37°58' E 023°34'0 0.0
2017-Nov-04 01:00N 37°58' E 023°34'0 0.0
2017-Nov-04 00:30N 37°58' E 023°34'0 0.0
2017-Nov-04 00:00N 37°58' E 023°34'0 0.0
2017-Nov-03 23:30N 37°58' E 023°34'0 0.0
2017-Nov-03 23:00N 37°58' E 023°34'0 0.0
2017-Nov-03 22:30N 37°58' E 023°34'0 0.0
2017-Nov-03 22:00N 37°58' E 023°34'0 0.0
2017-Nov-03 21:30N 37°58' E 023°34'0 0.0
2017-Nov-03 21:00N 37°58' E 023°34'0 0.0
2017-Nov-03 20:30N 37°58' E 023°34'0 0.0
2017-Nov-03 20:00N 37°58' E 023°34'0 0.0
2017-Nov-03 19:30N 37°58' E 023°34'0 0.0
2017-Nov-03 19:00N 37°58' E 023°34'0 0.0
2017-Nov-03 18:30N 37°58' E 023°34'0 0.0
2017-Nov-03 18:00N 37°58' E 023°34'0 0.0
2017-Nov-03 17:30N 37°58' E 023°34'0 0.0
2017-Nov-03 17:00N 37°58' E 023°34'0 0.0
2017-Nov-03 16:30N 37°58' E 023°34'0 0.0
2017-Nov-03 16:00N 37°58' E 023°34'0 0.0
2017-Nov-03 15:30N 37°58' E 023°34'0 0.0
2017-Nov-03 15:00N 37°58' E 023°34'0 0.0
2017-Nov-03 14:30N 37°58' E 023°34'0 0.0
2017-Nov-03 14:00N 37°58' E 023°34'0 0.0
2017-Nov-03 13:30N 37°58' E 023°34'0 0.0
2017-Nov-03 13:00N 37°58' E 023°34'0 0.0
2017-Nov-03 12:30N 37°58' E 023°34'0 0.0
2017-Nov-03 12:00N 37°58' E 023°34'0 0.0
2017-Nov-03 11:30N 37°58' E 023°34'0 0.0
2017-Nov-03 11:00N 37°58' E 023°34'0 0.0
2017-Nov-03 10:30N 37°58' E 023°34'0 0.0
2017-Nov-03 10:00N 37°58' E 023°34'0 0.0
2017-Nov-03 09:30N 37°58' E 023°34'0 0.0
2017-Nov-03 09:00N 37°58' E 023°34'0 0.0
2017-Nov-03 08:30N 37°58' E 023°34'0 0.0
2017-Nov-03 08:00N 37°58' E 023°34'0 0.0
2017-Nov-03 07:30N 37°58' E 023°34'0 0.0
2017-Nov-03 07:00N 37°58' E 023°34'0 0.0
2017-Nov-03 06:30N 37°58' E 023°34'0 0.0
2017-Nov-03 06:00N 37°58' E 023°34'0 0.0
2017-Nov-03 05:30N 37°58' E 023°34'0 0.0
2017-Nov-03 05:00N 37°58' E 023°34'0 0.0
2017-Nov-03 04:30N 37°58' E 023°34'0 0.0
2017-Nov-03 04:00N 37°58' E 023°34'0 0.0
2017-Nov-03 03:30N 37°58' E 023°34'0 0.0
2017-Nov-03 03:01N 37°58' E 023°34'0 0.0
2017-Nov-03 02:30N 37°58' E 023°34'0 0.0
2017-Nov-03 02:00N 37°58' E 023°34'0 0.0
2017-Nov-03 01:30N 37°58' E 023°34'0 0.0
2017-Nov-03 01:00N 37°58' E 023°34'0 0.0
2017-Nov-03 00:30N 37°58' E 023°34'0 0.0
2017-Nov-03 00:00N 37°58' E 023°34'0 0.0
2017-Nov-02 23:30N 37°58' E 023°34'0 0.0
2017-Nov-02 23:00N 37°58' E 023°34'0 0.0
2017-Nov-02 22:30N 37°58' E 023°34'0 0.0
2017-Nov-02 22:00N 37°58' E 023°34'0 0.0
2017-Nov-02 21:30N 37°58' E 023°34'0 0.0
2017-Nov-02 21:00N 37°58' E 023°34'0 0.0
2017-Nov-02 20:30N 37°58' E 023°34'0 0.0
2017-Nov-02 20:00N 37°58' E 023°34'0 0.0
2017-Nov-02 19:30N 37°58' E 023°34'0 0.0
2017-Nov-02 19:00N 37°58' E 023°34'0 0.0
2017-Nov-02 18:30N 37°58' E 023°34'0 0.0
2017-Nov-02 18:00N 37°58' E 023°34'0 0.0
2017-Nov-02 17:30N 37°58' E 023°34'0 0.0
2017-Nov-02 17:00N 37°58' E 023°34'0 0.0
2017-Nov-02 16:30N 37°58' E 023°34'0 0.0
2017-Nov-02 16:00N 37°58' E 023°34'0 0.0
2017-Nov-02 15:30N 37°58' E 023°34'0 0.0
2017-Nov-02 15:00N 37°58' E 023°34'0 0.0
2017-Nov-02 14:30N 37°58' E 023°34'0 0.0
2017-Nov-02 14:01N 37°58' E 023°34'0 0.0
2017-Nov-02 13:30N 37°58' E 023°34'0 0.0
2017-Nov-02 13:01N 37°58' E 023°34'0 0.0
2017-Nov-02 11:17N 37°58' E 023°34'0 0.0
2017-Nov-02 11:00N 37°58' E 023°34'0 0.0
2017-Nov-02 10:31N 37°58' E 023°34'0 0.0
2017-Nov-02 10:00N 37°58' E 023°34'0 0.0
2017-Nov-02 09:30N 37°58' E 023°34'0 0.0
2017-Nov-02 09:00N 37°58' E 023°34'0 0.0
2017-Nov-02 08:30N 37°58' E 023°34'0 0.0
2017-Nov-02 08:01N 37°58' E 023°34'0 0.0
2017-Nov-02 07:31N 37°58' E 023°34'0 0.0
2017-Nov-02 07:00N 37°58' E 023°34'0 0.0
2017-Nov-02 06:31N 37°58' E 023°34'0 0.0
2017-Nov-02 06:00N 37°58' E 023°34'0 0.0
2017-Nov-02 05:30N 37°58' E 023°34'0 0.0
2017-Nov-02 05:00N 37°58' E 023°34'0 0.0
2017-Nov-02 04:30N 37°58' E 023°34'0 0.0
2017-Nov-02 04:01N 37°58' E 023°34'0 0.0
2017-Nov-02 03:30N 37°58' E 023°34'0 0.0
2017-Nov-02 03:00N 37°58' E 023°34'0 0.0
2017-Nov-02 02:31N 37°58' E 023°34'0 0.0
2017-Nov-02 02:00N 37°58' E 023°34'0 0.0
2017-Nov-02 01:31N 37°58' E 023°34'0 0.0
2017-Nov-02 01:00N 37°58' E 023°34'0 0.0
2017-Nov-02 00:31N 37°58' E 023°34'0 0.0
2017-Nov-02 00:00N 37°58' E 023°34'0 0.0
2017-Nov-01 23:30N 37°58' E 023°34'0 0.0
2017-Nov-01 23:00N 37°58' E 023°34'0 0.0
2017-Nov-01 22:31N 37°58' E 023°34'0 0.0
2017-Nov-01 22:00N 37°58' E 023°34'0 0.0
2017-Nov-01 21:31N 37°58' E 023°34'0 0.0
2017-Nov-01 21:00N 37°58' E 023°34'0 0.0
2017-Nov-01 20:30N 37°58' E 023°34'0 0.0
2017-Nov-01 20:00N 37°58' E 023°34'0 0.0
2017-Nov-01 19:31N 37°58' E 023°34'0 0.0
2017-Nov-01 19:01N 37°58' E 023°34'0 0.0
2017-Nov-01 18:30N 37°58' E 023°34'0 0.0
2017-Nov-01 02:01N 37°58' E 023°34'0 0.0
2017-Nov-01 01:30N 37°58' E 023°34'0 0.0
2017-Nov-01 01:00N 37°58' E 023°34'0 0.0
2017-Nov-01 00:31N 37°58' E 023°34'0 0.0
2017-Nov-01 00:00N 37°58' E 023°34'0 0.0
2017-Oct-31 23:30N 37°58' E 023°34'0 0.0
2017-Oct-31 23:00N 37°58' E 023°34'0 0.0
2017-Oct-31 22:30N 37°58' E 023°34'0 0.0
2017-Oct-31 22:00N 37°58' E 023°34'0 0.0
2017-Oct-31 21:31N 37°58' E 023°34'0 0.0
2017-Oct-31 21:00N 37°58' E 023°34'0 0.0
2017-Oct-31 20:30N 37°58' E 023°34'0 0.0
2017-Oct-31 20:01N 37°58' E 023°34'0 0.0
2017-Oct-31 19:30N 37°58' E 023°34'0 0.0
2017-Oct-31 19:01N 37°58' E 023°34'0 0.0
2017-Oct-31 18:31N 37°58' E 023°34'0 0.0
2017-Oct-31 18:00N 37°58' E 023°34'0 0.0
2017-Oct-31 17:31N 37°58' E 023°34'0 0.0
2017-Oct-31 17:01N 37°58' E 023°34'0 0.0
2017-Oct-31 16:30N 37°58' E 023°34'0 0.0
2017-Oct-31 16:01N 37°58' E 023°34'0 0.0
2017-Oct-31 15:30N 37°58' E 023°34'0 0.0
2017-Oct-31 15:01N 37°58' E 023°34'  

Dump ship's entire track history